Time;durP1;ratioP1;P1;durP2;ratioP2;P2;SDS_P1;SDS_P2;PMS_P1;PMS_P2;Temp;Humidity;BMP_temperature;BMP_pressure;BME280_temperature;BME280_humidity;BME280_pressure;Samples;Min_cycle;Max_cycle;Signal;HPM_P1;HPM_P2
2022/11/09 00:01:55;;;;;;;;;;;;;;;;;;4989600;28;19926;-59
2022/11/09 00:04:26;;;;;;;;;;;;;;;;;;4988447;28;20380;-59
2022/11/09 00:06:56;;;;;;;;;;;;;;;;;;4989595;28;19976;-59
2022/11/09 00:09:28;;;;;;;;;;;;;;;;;;4989204;28;19979;-60
2022/11/09 00:12:03;;;;;;;;;;;;;;;;;;4989292;28;19926;-59
2022/11/09 00:14:34;;;;;;;;;;;;;;;;;;4991492;28;19930;-59
2022/11/09 00:17:01;;;;;;;;;;;;;;;;;;4995569;28;20009;-60
2022/11/09 00:19:27;;;;;;;;;;;;;;;;;;4994632;28;19929;-59
2022/11/09 00:21:56;;;;;;;;;;;;;;;;;;4996064;28;19926;-60
2022/11/09 00:24:26;;;;;;;;;;;;;;;;;;4995342;28;19980;-59
2022/11/09 00:26:55;;;;;;;;;;;;;;;;;;4995541;28;19976;-58
2022/11/09 00:29:23;;;;;;;;;;;;;;;;;;4995571;28;19942;-59
2022/11/09 00:31:55;;;;;;;;;;;;;;;;;;4978260;28;19926;-59
2022/11/09 00:34:25;;;;;;;;;;;;;;;;;;4994856;28;20367;-59
2022/11/09 00:36:54;;;;;;;;;;;;;;;;;;4995920;28;19984;-59
2022/11/09 00:39:21;;;;;;;;;;;;;;;;;;4994989;28;20402;-59
2022/11/09 00:41:52;;;;;;;;;;;;;;;;;;4995026;28;19921;-59
2022/11/09 00:44:18;;;;;;;;;;;;;;;;;;4995377;28;19926;-58
2022/11/09 00:46:44;;;;;;;;;;;;;;;;;;4995603;28;19922;-58
2022/11/09 00:49:10;;;;;;;;;;;;;;;;;;4994518;28;20411;-58
2022/11/09 00:51:36;;;;;;;;;;;;;;;;;;4995856;28;19925;-59
2022/11/09 00:54:02;;;;;;;;;;;;;;;;;;4977963;28;19925;-58
2022/11/09 00:56:28;;;;;;;;;;;;;;;;;;4994668;28;19945;-58
2022/11/09 00:58:57;;;;;;;;;;;;;;;;;;4995543;28;19930;-59
2022/11/09 01:01:25;;;;;;;;;;;;;;;;;;4995523;28;20375;-58
2022/11/09 01:03:51;;;;;;;;;;;;;;;;;;4995509;28;20396;-58
2022/11/09 01:06:21;;;;;;;;;;;;;;;;;;4994475;28;19953;-59
2022/11/09 01:08:50;;;;;;;;;;;;;;;;;;4995019;28;19976;-58
2022/11/09 01:11:19;;;;;;;;;;;;;;;;;;4994583;28;19930;-59
2022/11/09 01:13:49;;;;;;;;;;;;;;;;;;4995720;28;19929;-58
2022/11/09 01:16:15;;;;;;;;;;;;;;;;;;4994862;28;19929;-58
2022/11/09 01:18:41;;;;;;;;;;;;;;;;;;4974294;28;20407;-58
2022/11/09 01:21:10;;;;;;;;;;;;;;;;;;4973326;28;19926;-59
2022/11/09 01:23:41;;;;;;;;;;;;;;;;;;4975730;28;19926;-58
2022/11/09 01:26:10;;;;;;;;;;;;;;;;;;4972648;28;20451;-59
2022/11/09 01:28:37;;;;;;;;;;;;;;;;;;4972576;28;19930;-58
2022/11/09 01:31:05;;;;;;;;;;;;;;;;;;4972655;28;19945;-59
2022/11/09 01:33:37;;;;;;;;;;;;;;;;;;4972539;28;20015;-59
2022/11/09 01:36:07;;;;;;;;;;;;;;;;;;4971928;28;19926;-60
2022/11/09 01:38:38;;;;;;;;;;;;;;;;;;4972706;28;20398;-59
2022/11/09 01:41:08;;;;;;;;;;;;;;;;;;4972290;28;19929;-58
2022/11/09 01:43:38;;;;;;;;;;;;;;;;;;4970033;28;19930;-58
2022/11/09 01:46:06;;;;;;;;;;;;;;;;;;4972191;28;19932;-59
2022/11/09 01:48:32;;;;;;;;;;;;;;;;;;4971940;28;20016;-58
2022/11/09 01:50:58;;;;;;;;;;;;;;;;;;4971372;28;19934;-58
2022/11/09 01:53:24;;;;;;;;;;;;;;;;;;4972366;28;19977;-58
2022/11/09 01:55:53;;;;;;;;;;;;;;;;;;4958850;28;20380;-58
2022/11/09 01:58:25;;;;;;;;;;;;;;;;;;4971700;28;19926;-58
2022/11/09 02:00:54;;;;;;;;;;;;;;;;;;4972195;28;20288;-59
2022/11/09 02:03:20;;;;;;;;;;;;;;;;;;4972274;28;20384;-59
2022/11/09 02:05:46;;;;;;;;;;;;;;;;;;4971416;28;19926;-59
2022/11/09 02:08:12;;;;;;;;;;;;;;;;;;4971856;28;19949;-59
2022/11/09 02:10:41;;;;;;;;;;;;;;;;;;4971860;28;19929;-59
2022/11/09 02:13:10;;;;;;;;;;;;;;;;;;5044999;23;19980;-55
2022/11/09 02:15:36;;;;;;;;;;;;;;;;;;4969201;28;20374;-56
2022/11/09 02:18:05;;;;;;;;;;;;;;;;;;4971237;28;19926;-57
2022/11/09 02:20:37;;;;;;;;;;;;;;;;;;4970446;28;20403;-57
2022/11/09 02:23:08;;;;;;;;;;;;;;;;;;4970449;28;19972;-57
2022/11/09 02:25:41;;;;;;;;;;;;;;;;;;4971093;28;19926;-57
2022/11/09 02:28:14;;;;;;;;;;;;;;;;;;4970210;28;20423;-57
2022/11/09 02:30:45;;;;;;;;;;;;;;;;;;4971080;28;19926;-57
2022/11/09 02:33:14;;;;;;;;;;;;;;;;;;4970671;28;19926;-57
2022/11/09 02:35:40;;;;;;;;;;;;;;;;;;4969480;28;19922;-57
2022/11/09 02:38:09;;;;;;;;;;;;;;;;;;4970089;28;19930;-57
2022/11/09 02:40:42;;;;;;;;;;;;;;;;;;4970746;28;19968;-57
2022/11/09 02:43:13;;;;;;;;;;;;;;;;;;4967018;28;19926;-57
2022/11/09 02:45:43;;;;;;;;;;;;;;;;;;4970781;28;19926;-57
2022/11/09 02:48:13;;;;;;;;;;;;;;;;;;4969854;28;19941;-57
2022/11/09 02:50:46;;;;;;;;;;;;;;;;;;4968468;28;19942;-57
2022/11/09 02:53:15;;;;;;;;;;;;;;;;;;4969960;28;19985;-57
2022/11/09 02:55:47;;;;;;;;;;;;;;;;;;4970459;28;20276;-57
2022/11/09 02:58:16;;;;;;;;;;;;;;;;;;4970003;28;19930;-57
2022/11/09 03:00:42;;;;;;;;;;;;;;;;;;4970307;28;20064;-56
2022/11/09 03:03:08;;;;;;;;;;;;;;;;;;4969806;28;20268;-57
2022/11/09 03:05:34;;;;;;;;;;;;;;;;;;4969157;28;19933;-57
2022/11/09 03:08:02;;;;;;;;;;;;;;;;;;4970736;28;20016;-57
2022/11/09 03:10:28;;;;;;;;;;;;;;;;;;4969821;28;20395;-56
2022/11/09 03:12:56;;;;;;;;;;;;;;;;;;4969696;28;19930;-57
2022/11/09 03:15:25;;;;;;;;;;;;;;;;;;4969618;28;19941;-57
2022/11/09 03:17:55;;;;;;;;;;;;;;;;;;4967066;28;19932;-56
2022/11/09 03:20:21;;;;;;;;;;;;;;;;;;4969003;28;19926;-57
2022/11/09 03:22:48;;;;;;;;;;;;;;;;;;4969495;28;19937;-57
2022/11/09 03:25:19;;;;;;;;;;;;;;;;;;4969848;28;20455;-57
2022/11/09 03:27:51;;;;;;;;;;;;;;;;;;4969801;28;19926;-57
2022/11/09 03:30:20;;;;;;;;;;;;;;;;;;4969723;28;19990;-56
2022/11/09 03:32:46;;;;;;;;;;;;;;;;;;4969691;28;19934;-57
2022/11/09 03:35:16;;;;;;;;;;;;;;;;;;4968522;28;19950;-57
2022/11/09 03:37:47;;;;;;;;;;;;;;;;;;4969669;28;19926;-57
2022/11/09 03:40:20;;;;;;;;;;;;;;;;;;4969713;28;19930;-57
2022/11/09 03:42:52;;;;;;;;;;;;;;;;;;4969272;28;19926;-57
2022/11/09 03:45:23;;;;;;;;;;;;;;;;;;4969401;28;19926;-57
2022/11/09 03:47:58;;;;;;;;;;;;;;;;;;4969637;28;20050;-57
2022/11/09 03:50:29;;;;;;;;;;;;;;;;;;4965322;28;19926;-57
2022/11/09 03:53:01;;;;;;;;;;;;;;;;;;4969771;28;19930;-57
2022/11/09 03:55:31;;;;;;;;;;;;;;;;;;4970117;28;19979;-57
2022/11/09 03:57:58;;;;;;;;;;;;;;;;;;4969422;28;19930;-57
2022/11/09 04:00:30;;;;;;;;;;;;;;;;;;4963524;28;19972;-57
2022/11/09 04:03:00;;;;;;;;;;;;;;;;;;4969822;28;19929;-57
2022/11/09 04:05:26;;;;;;;;;;;;;;;;;;4968233;28;20021;-57
2022/11/09 04:07:55;;;;;;;;;;;;;;;;;;4969697;28;20028;-57
2022/11/09 04:10:24;;;;;;;;;;;;;;;;;;4969274;28;20070;-57
2022/11/09 04:12:53;;;;;;;;;;;;;;;;;;4969216;28;19931;-57
2022/11/09 04:15:26;;;;;;;;;;;;;;;;;;4969260;28;20009;-57
2022/11/09 04:17:58;;;;;;;;;;;;;;;;;;4968816;28;20327;-57
2022/11/09 04:20:30;;;;;;;;;;;;;;;;;;4968258;28;19926;-56
2022/11/09 04:23:01;;;;;;;;;;;;;;;;;;4969648;28;19926;-57
2022/11/09 04:25:32;;;;;;;;;;;;;;;;;;4969274;28;19933;-57
2022/11/09 04:28:00;;;;;;;;;;;;;;;;;;4969673;28;20388;-57
2022/11/09 04:30:29;;;;;;;;;;;;;;;;;;4951174;28;19965;-56
2022/11/09 04:33:01;;;;;;;;;;;;;;;;;;4966159;28;19926;-57
2022/11/09 04:35:34;;;;;;;;;;;;;;;;;;4968342;28;20017;-57
2022/11/09 04:38:03;;;;;;;;;;;;;;;;;;4969087;28;19932;-58
2022/11/09 04:40:33;;;;;;;;;;;;;;;;;;4969652;28;19921;-57
2022/11/09 04:43:02;;;;;;;;;;;;;;;;;;4969872;28;19933;-57
2022/11/09 04:45:32;;;;;;;;;;;;;;;;;;4969132;28;19930;-58
2022/11/09 04:47:59;;;;;;;;;;;;;;;;;;4969256;28;19933;-57
2022/11/09 04:50:25;;;;;;;;;;;;;;;;;;4968290;28;19981;-58
2022/11/09 04:52:51;;;;;;;;;;;;;;;;;;4969111;28;19930;-58
2022/11/09 04:55:18;;;;;;;;;;;;;;;;;;4968269;28;20299;-57
2022/11/09 04:57:49;;;;;;;;;;;;;;;;;;4968447;28;20391;-57
2022/11/09 05:00:21;;;;;;;;;;;;;;;;;;4969073;28;20384;-57
2022/11/09 05:02:51;;;;;;;;;;;;;;;;;;4971241;28;19933;-58
2022/11/09 05:05:17;;;;;;;;;;;;;;;;;;4971900;28;19926;-57
2022/11/09 05:07:45;;;;;;;;;;;;;;;;;;4972592;28;20459;-58
2022/11/09 05:10:14;;;;;;;;;;;;;;;;;;4972139;28;19927;-58
2022/11/09 05:12:40;;;;;;;;;;;;;;;;;;4971739;28;19926;-57
2022/11/09 05:15:09;;;;;;;;;;;;;;;;;;4971828;28;19989;-58
2022/11/09 05:17:41;;;;;;;;;;;;;;;;;;4972067;28;19964;-58
2022/11/09 05:20:10;;;;;;;;;;;;;;;;;;4971787;28;20028;-58
2022/11/09 05:25:25;;;;;;;;;;;;;;;;;;4972471;28;19976;-58
2022/11/09 05:27:54;;;;;;;;;;;;;;;;;;4971896;28;20013;-57
2022/11/09 05:30:20;;;;;;;;;;;;;;;;;;4971961;28;20018;-58
2022/11/09 05:32:50;;;;;;;;;;;;;;;;;;4972049;28;19930;-58
2022/11/09 05:35:23;;;;;;;;;;;;;;;;;;4971074;28;19921;-58
2022/11/09 05:37:52;;;;;;;;;;;;;;;;;;4971734;28;19932;-57
2022/11/09 05:40:21;;;;;;;;;;;;;;;;;;4972070;28;19926;-58
2022/11/09 05:42:50;;;;;;;;;;;;;;;;;;4972134;28;19926;-57
2022/11/09 05:45:20;;;;;;;;;;;;;;;;;;4971710;28;19922;-58
2022/11/09 05:47:51;;;;;;;;;;;;;;;;;;4971570;28;19926;-58
2022/11/09 05:50:20;;;;;;;;;;;;;;;;;;4970380;28;19926;-58
2022/11/09 05:52:49;;;;;;;;;;;;;;;;;;4971622;28;19948;-58
2022/11/09 05:55:22;;;;;;;;;;;;;;;;;;4971564;28;20629;-58
2022/11/09 05:57:52;;;;;;;;;;;;;;;;;;4968761;28;19981;-57
2022/11/09 06:00:21;;;;;;;;;;;;;;;;;;4970864;28;19941;-58
2022/11/09 06:02:51;;;;;;;;;;;;;;;;;;4971457;28;19926;-57
2022/11/09 06:05:19;;;;;;;;;;;;;;;;;;4970143;28;19934;-56
2022/11/09 06:07:46;;;;;;;;;;;;;;;;;;4970853;28;19926;-57
2022/11/09 06:10:12;;;;;;;;;;;;;;;;;;4970252;28;19933;-57
2022/11/09 06:12:40;;;;;;;;;;;;;;;;;;4969409;28;19926;-58
2022/11/09 06:15:11;;;;;;;;;;;;;;;;;;4971143;28;19926;-57
2022/11/09 06:17:42;;;;;;;;;;;;;;;;;;4970902;28;20363;-57
2022/11/09 06:20:14;;;;;;;;;;;;;;;;;;4970608;28;19933;-57
2022/11/09 06:22:45;;;;;;;;;;;;;;;;;;4971053;28;19926;-57
2022/11/09 06:25:12;;;;;;;;;;;;;;;;;;4963574;28;19972;-56
2022/11/09 06:27:42;;;;;;;;;;;;;;;;;;4960627;28;20005;-57
2022/11/09 06:30:11;;;;;;;;;;;;;;;;;;4955429;28;19934;-57
2022/11/09 06:32:42;;;;;;;;;;;;;;;;;;4943789;28;19930;-57
2022/11/09 06:35:17;;;;;;;;;;;;;;;;;;4961044;28;19926;-58
2022/11/09 06:37:47;;;;;;;;;;;;;;;;;;4963577;28;19973;-57
2022/11/09 06:40:19;;;;;;;;;;;;;;;;;;4963752;28;19962;-57
2022/11/09 06:42:52;;;;;;;;;;;;;;;;;;4952428;28;19941;-58
2022/11/09 06:45:20;;;;;;;;;;;;;;;;;;4958841;28;20352;-57
2022/11/09 06:47:48;;;;;;;;;;;;;;;;;;4955524;28;19930;-58
2022/11/09 06:50:17;;;;;;;;;;;;;;;;;;4953658;28;20276;-58
2022/11/09 06:52:51;;;;;;;;;;;;;;;;;;4953854;28;19927;-57
2022/11/09 06:55:23;;;;;;;;;;;;;;;;;;4965024;28;19969;-58
2022/11/09 06:57:57;;;;;;;;;;;;;;;;;;4971051;28;20479;-57
2022/11/09 07:00:30;;;;;;;;;;;;;;;;;;4970393;28;20406;-58
2022/11/09 07:03:02;;;;;;;;;;;;;;;;;;4971146;28;19933;-58
2022/11/09 07:05:35;;;;;;;;;;;;;;;;;;4970914;28;19932;-58
2022/11/09 07:08:05;;;;;;;;;;;;;;;;;;4969974;28;19926;-58
2022/11/09 07:10:31;;;;;;;;;;;;;;;;;;4969935;28;19926;-57
2022/11/09 07:12:57;;;;;;;;;;;;;;;;;;4969137;28;19926;-57
2022/11/09 07:15:23;;;;;;;;;;;;;;;;;;4969308;28;19980;-57
2022/11/09 07:17:49;;;;;;;;;;;;;;;;;;4970028;28;19928;-57
2022/11/09 07:20:15;;;;;;;;;;;;;;;;;;4969202;28;19926;-57
2022/11/09 07:22:41;;;;;;;;;;;;;;;;;;4969708;28;19926;-57
2022/11/09 07:25:07;;;;;;;;;;;;;;;;;;4969232;28;19929;-57
2022/11/09 07:27:33;;;;;;;;;;;;;;;;;;4970408;28;19927;-57
2022/11/09 07:29:59;;;;;;;;;;;;;;;;;;4970351;28;20020;-57
2022/11/09 07:32:25;;;;;;;;;;;;;;;;;;4952225;28;19926;-57
2022/11/09 07:34:51;;;;;;;;;;;;;;;;;;4968963;28;19933;-56
2022/11/09 07:37:17;;;;;;;;;;;;;;;;;;4969038;28;19930;-57
2022/11/09 07:39:43;;;;;;;;;;;;;;;;;;4952317;28;20028;-56
2022/11/09 07:42:09;;;;;;;;;;;;;;;;;;4969791;28;19980;-57
2022/11/09 07:44:35;;;;;;;;;;;;;;;;;;4969939;28;19933;-59
2022/11/09 07:47:01;;;;;;;;;;;;;;;;;;4969982;28;19965;-56
2022/11/09 07:49:27;;;;;;;;;;;;;;;;;;4968526;28;20049;-56
2022/11/09 07:51:53;;;;;;;;;;;;;;;;;;4969711;28;19934;-56
2022/11/09 07:54:19;;;;;;;;;;;;;;;;;;4969614;28;19995;-57
2022/11/09 07:56:45;;;;;;;;;;;;;;;;;;4969890;28;19997;-57
2022/11/09 07:59:11;;;;;;;;;;;;;;;;;;4969738;28;20005;-57
2022/11/09 08:01:37;;;;;;;;;;;;;;;;;;4969475;28;19926;-58
2022/11/09 08:04:04;;;;;;;;;;;;;;;;;;4968751;28;20319;-58
2022/11/09 08:06:30;;;;;;;;;;;;;;;;;;4970123;28;19929;-57
2022/11/09 08:08:56;;;;;;;;;;;;;;;;;;4969400;28;19926;-57
2022/11/09 08:11:23;;;;;;;;;;;;;;;;;;4969587;28;20360;-57
2022/11/09 08:13:48;;;;;;;;;;;;;;;;;;4969409;28;20372;-58
2022/11/09 08:16:14;;;;;;;;;;;;;;;;;;4969001;28;19976;-57
2022/11/09 08:18:40;;;;;;;;;;;;;;;;;;4968689;28;19922;-58
2022/11/09 08:21:06;;;;;;;;;;;;;;;;;;4969048;28;19973;-57
2022/11/09 08:23:33;;;;;;;;;;;;;;;;;;4969737;28;19927;-57
2022/11/09 08:25:59;;;;;;;;;;;;;;;;;;4969540;28;19922;-57
2022/11/09 08:28:25;;;;;;;;;;;;;;;;;;4969130;28;19926;-57
2022/11/09 08:30:50;;;;;;;;;;;;;;;;;;4968834;28;20009;-56
2022/11/09 08:33:16;;;;;;;;;;;;;;;;;;4968269;28;19980;-57
2022/11/09 08:35:42;;;;;;;;;;;;;;;;;;4970640;28;19933;-57
2022/11/09 08:38:09;;;;;;;;;;;;;;;;;;4973091;28;19926;-57
2022/11/09 08:40:35;;;;;;;;;;;;;;;;;;4973479;28;19926;-57
2022/11/09 08:43:01;;;;;;;;;;;;;;;;;;4973289;28;20343;-57
2022/11/09 08:45:27;;;;;;;;;;;;;;;;;;4954835;28;19945;-58
2022/11/09 08:47:53;;;;;;;;;;;;;;;;;;4972334;28;19930;-57
2022/11/09 08:50:19;;;;;;;;;;;;;;;;;;4972578;28;20372;-57
2022/11/09 08:52:45;;;;;;;;;;;;;;;;;;4973008;28;19926;-57
2022/11/09 08:55:11;;;;;;;;;;;;;;;;;;4972874;28;20455;-57
2022/11/09 08:57:37;;;;;;;;;;;;;;;;;;4972922;28;19978;-56
2022/11/09 09:00:03;;;;;;;;;;;;;;;;;;4972570;28;20388;-57
2022/11/09 09:02:29;;;;;;;;;;;;;;;;;;4973099;28;19934;-57
2022/11/09 09:04:55;;;;;;;;;;;;;;;;;;4972309;28;20444;-57
2022/11/09 09:07:21;;;;;;;;;;;;;;;;;;4972264;28;19922;-57
2022/11/09 09:09:47;;;;;;;;;;;;;;;;;;4972534;28;20024;-57
2022/11/09 09:12:13;;;;;;;;;;;;;;;;;;4972094;28;19941;-57
2022/11/09 09:14:39;;;;;;;;;;;;;;;;;;4971999;28;19926;-56
2022/11/09 09:17:05;;;;;;;;;;;;;;;;;;4972187;28;20384;-58
2022/11/09 09:19:31;;;;;;;;;;;;;;;;;;4972132;28;19926;-57
2022/11/09 09:21:57;;;;;;;;;;;;;;;;;;4972208;28;20554;-57
2022/11/09 09:24:23;;;;;;;;;;;;;;;;;;4972090;28;19934;-57
2022/11/09 09:26:49;;;;;;;;;;;;;;;;;;4972177;28;19981;-57
2022/11/09 09:29:15;;;;;;;;;;;;;;;;;;4972155;28;20284;-57
2022/11/09 09:31:41;;;;;;;;;;;;;;;;;;4972398;28;19930;-57
2022/11/09 09:34:07;;;;;;;;;;;;;;;;;;4971102;28;19953;-56
2022/11/09 09:36:34;;;;;;;;;;;;;;;;;;4972423;28;20047;-58
2022/11/09 09:39:00;;;;;;;;;;;;;;;;;;4972752;28;19926;-56
2022/11/09 09:41:26;;;;;;;;;;;;;;;;;;4971380;28;19996;-58
2022/11/09 09:43:52;;;;;;;;;;;;;;;;;;4971830;28;20009;-55
2022/11/09 09:46:18;;;;;;;;;;;;;;;;;;4971968;28;20505;-57
2022/11/09 09:48:44;;;;;;;;;;;;;;;;;;4952831;28;20364;-56
2022/11/09 09:51:10;;;;;;;;;;;;;;;;;;4971654;28;19926;-56
2022/11/09 09:53:36;;;;;;;;;;;;;;;;;;4971946;28;20359;-55
2022/11/09 09:56:02;;;;;;;;;;;;;;;;;;4971930;28;19957;-57
2022/11/09 09:58:28;;;;;;;;;;;;;;;;;;4971292;28;19973;-58
2022/11/09 10:00:54;;;;;;;;;;;;;;;;;;4971945;28;20025;-56
2022/11/09 10:03:20;;;;;;;;;;;;;;;;;;4970868;28;20009;-57
2022/11/09 10:05:46;;;;;;;;;;;;;;;;;;4971583;28;19926;-57
2022/11/09 10:08:12;;;;;;;;;;;;;;;;;;4970888;28;19933;-57
2022/11/09 10:10:38;;;;;;;;;;;;;;;;;;4971732;28;20430;-56
2022/11/09 10:13:04;;;;;;;;;;;;;;;;;;4970950;28;19933;-59
2022/11/09 10:15:30;;;;;;;;;;;;;;;;;;4971737;28;19926;-57
2022/11/09 10:17:56;;;;;;;;;;;;;;;;;;4970297;28;20021;-56
2022/11/09 10:20:22;;;;;;;;;;;;;;;;;;4970937;28;19952;-57
2022/11/09 10:22:48;;;;;;;;;;;;;;;;;;4970902;28;19958;-56
2022/11/09 10:25:14;;;;;;;;;;;;;;;;;;4971165;28;19926;-57
2022/11/09 10:27:40;;;;;;;;;;;;;;;;;;4971035;28;19927;-56
2022/11/09 10:30:06;;;;;;;;;;;;;;;;;;4971295;28;19927;-58
2022/11/09 10:32:32;;;;;;;;;;;;;;;;;;4971068;28;19926;-58
2022/11/09 10:34:58;;;;;;;;;;;;;;;;;;4971039;28;19929;-57
2022/11/09 10:37:24;;;;;;;;;;;;;;;;;;4970567;28;19940;-55
2022/11/09 10:39:50;;;;;;;;;;;;;;;;;;4971036;28;19926;-57
2022/11/09 10:42:16;;;;;;;;;;;;;;;;;;4970805;28;19997;-57
2022/11/09 10:44:42;;;;;;;;;;;;;;;;;;4970771;28;20398;-57
2022/11/09 10:47:08;;;;;;;;;;;;;;;;;;4970718;28;19937;-57
2022/11/09 10:49:34;;;;;;;;;;;;;;;;;;4970156;28;19926;-59
2022/11/09 10:52:00;;;;;;;;;;;;;;;;;;4970894;28;19933;-57
2022/11/09 10:54:27;;;;;;;;;;;;;;;;;;4953182;28;19926;-56
2022/11/09 10:56:53;;;;;;;;;;;;;;;;;;4970716;28;19926;-57
2022/11/09 10:59:19;;;;;;;;;;;;;;;;;;4970214;28;19957;-57
2022/11/09 11:01:45;;;;;;;;;;;;;;;;;;4970511;28;20261;-57
2022/11/09 11:04:11;;;;;;;;;;;;;;;;;;4967991;28;19973;-58
2022/11/09 11:06:37;;;;;;;;;;;;;;;;;;4952948;28;20399;-58
2022/11/09 11:09:03;;;;;;;;;;;;;;;;;;4968792;28;19937;-57
2022/11/09 11:11:29;;;;;;;;;;;;;;;;;;4969748;28;19934;-57
2022/11/09 11:13:57;;;;;;;;;;;;;;;;;;4951681;28;20005;-58
2022/11/09 11:16:23;;;;;;;;;;;;;;;;;;4969455;28;19926;-58
2022/11/09 11:18:49;;;;;;;;;;;;;;;;;;4969136;28;19926;-56
2022/11/09 11:21:15;;;;;;;;;;;;;;;;;;4969760;28;19997;-59
2022/11/09 11:23:41;;;;;;;;;;;;;;;;;;4970031;28;19922;-58
2022/11/09 11:26:07;;;;;;;;;;;;;;;;;;4968937;28;19934;-56
2022/11/09 11:28:33;;;;;;;;;;;;;;;;;;4970386;28;19926;-55
2022/11/09 11:30:59;;;;;;;;;;;;;;;;;;4949652;28;20016;-57
2022/11/09 11:33:25;;;;;;;;;;;;;;;;;;4968289;28;19974;-56
2022/11/09 11:35:51;;;;;;;;;;;;;;;;;;4969388;28;19929;-57
2022/11/09 11:38:17;;;;;;;;;;;;;;;;;;4967070;28;19934;-57
2022/11/09 11:40:43;;;;;;;;;;;;;;;;;;4964620;28;20412;-58
2022/11/09 11:43:09;;;;;;;;;;;;;;;;;;4966949;28;19930;-58
2022/11/09 11:45:35;;;;;;;;;;;;;;;;;;4967565;28;20402;-58
2022/11/09 11:48:01;;;;;;;;;;;;;;;;;;4966607;28;19968;-58
2022/11/09 11:50:27;;;;;;;;;;;;;;;;;;4966625;28;20403;-58
2022/11/09 11:52:53;;;;;;;;;;;;;;;;;;4967264;28;19933;-57
2022/11/09 11:55:19;;;;;;;;;;;;;;;;;;4966223;28;20363;-57
2022/11/09 11:57:45;;;;;;;;;;;;;;;;;;4967138;28;19981;-59
2022/11/09 12:00:12;;;;;;;;;;;;;;;;;;4966157;28;19937;-59
2022/11/09 12:02:38;;;;;;;;;;;;;;;;;;4965671;28;19934;-59
2022/11/09 12:05:04;;;;;;;;;;;;;;;;;;4967146;28;19933;-60
2022/11/09 12:07:30;;;;;;;;;;;;;;;;;;4966638;28;20019;-58
2022/11/09 12:09:56;;;;;;;;;;;;;;;;;;4966449;28;19984;-58
2022/11/09 12:12:22;;;;;;;;;;;;;;;;;;4949863;28;19930;-58
2022/11/09 12:14:47;;;;;;;;;;;;;;;;;;4955598;28;19938;-59
2022/11/09 12:17:14;;;;;;;;;;;;;;;;;;4966070;28;19930;-58
2022/11/09 12:19:40;;;;;;;;;;;;;;;;;;4966325;28;19930;-58
2022/11/09 12:22:06;;;;;;;;;;;;;;;;;;4966178;28;19980;-57
2022/11/09 12:24:32;;;;;;;;;;;;;;;;;;4966939;28;19929;-58
2022/11/09 12:26:58;;;;;;;;;;;;;;;;;;4966726;28;19942;-58
2022/11/09 12:29:24;;;;;;;;;;;;;;;;;;4965995;28;19989;-57
2022/11/09 12:31:50;;;;;;;;;;;;;;;;;;4966740;28;20002;-57
2022/11/09 12:34:16;;;;;;;;;;;;;;;;;;4965740;28;20355;-58
2022/11/09 12:36:42;;;;;;;;;;;;;;;;;;4949789;28;19926;-58
2022/11/09 12:39:08;;;;;;;;;;;;;;;;;;4962731;28;19934;-56
2022/11/09 12:41:34;;;;;;;;;;;;;;;;;;4966358;28;19937;-58
2022/11/09 12:44:01;;;;;;;;;;;;;;;;;;4966198;28;19937;-57
2022/11/09 12:46:27;;;;;;;;;;;;;;;;;;4966560;28;20009;-57
2022/11/09 12:48:53;;;;;;;;;;;;;;;;;;4963437;28;20035;-57
2022/11/09 12:51:19;;;;;;;;;;;;;;;;;;4961788;28;19953;-57
2022/11/09 12:53:45;;;;;;;;;;;;;;;;;;4961733;28;19930;-58
2022/11/09 12:56:11;;;;;;;;;;;;;;;;;;4961224;28;19926;-57
2022/11/09 12:58:37;;;;;;;;;;;;;;;;;;4968698;28;19926;-58
2022/11/09 13:01:03;;;;;;;;;;;;;;;;;;4969379;28;19949;-58
2022/11/09 13:03:29;;;;;;;;;;;;;;;;;;4968470;28;19926;-58
2022/11/09 13:05:55;;;;;;;;;;;;;;;;;;4968994;28;19926;-57
2022/11/09 13:08:21;;;;;;;;;;;;;;;;;;4968865;28;19997;-57
2022/11/09 13:10:47;;;;;;;;;;;;;;;;;;4968774;28;20020;-58
2022/11/09 13:13:14;;;;;;;;;;;;;;;;;;4968504;28;19930;-56
2022/11/09 13:15:40;;;;;;;;;;;;;;;;;;4969033;28;19926;-57
2022/11/09 13:18:06;;;;;;;;;;;;;;;;;;4967968;28;19929;-58
2022/11/09 13:20:32;;;;;;;;;;;;;;;;;;4965285;28;20455;-58
2022/11/09 13:22:58;;;;;;;;;;;;;;;;;;4958191;28;19981;-58
2022/11/09 13:25:24;;;;;;;;;;;;;;;;;;4951023;28;20300;-58
2022/11/09 13:27:50;;;;;;;;;;;;;;;;;;4962418;28;19973;-58
2022/11/09 13:30:16;;;;;;;;;;;;;;;;;;4963401;28;19949;-58
2022/11/09 13:32:42;;;;;;;;;;;;;;;;;;4945578;28;19937;-57
2022/11/09 13:35:08;;;;;;;;;;;;;;;;;;4956183;28;19930;-56
2022/11/09 13:37:34;;;;;;;;;;;;;;;;;;4955800;28;20304;-59
2022/11/09 13:40:00;;;;;;;;;;;;;;;;;;4951784;28;19941;-58
2022/11/09 13:42:26;;;;;;;;;;;;;;;;;;4941441;28;19930;-58
2022/11/09 13:44:52;;;;;;;;;;;;;;;;;;4951343;28;20014;-58
2022/11/09 13:47:18;;;;;;;;;;;;;;;;;;4955127;28;19944;-57
2022/11/09 13:49:44;;;;;;;;;;;;;;;;;;4953304;28;19937;-57
2022/11/09 13:52:10;;;;;;;;;;;;;;;;;;4951799;28;19930;-58
2022/11/09 13:54:36;;;;;;;;;;;;;;;;;;4957311;28;19942;-57
2022/11/09 13:57:02;;;;;;;;;;;;;;;;;;4951790;28;20029;-57
2022/11/09 13:59:28;;;;;;;;;;;;;;;;;;4952625;28;19932;-58
2022/11/09 14:01:54;;;;;;;;;;;;;;;;;;4951601;28;19941;-58
2022/11/09 14:04:21;;;;;;;;;;;;;;;;;;4949847;28;19926;-58
2022/11/09 14:06:47;;;;;;;;;;;;;;;;;;4952788;28;19930;-58
2022/11/09 14:09:13;;;;;;;;;;;;;;;;;;4954478;28;19949;-58
2022/11/09 14:11:39;;;;;;;;;;;;;;;;;;4953601;28;20020;-58
2022/11/09 14:14:05;;;;;;;;;;;;;;;;;;4948403;28;19926;-58
2022/11/09 14:16:31;;;;;;;;;;;;;;;;;;4957692;28;20005;-58
2022/11/09 14:18:57;;;;;;;;;;;;;;;;;;4945755;28;19941;-58
2022/11/09 14:21:23;;;;;;;;;;;;;;;;;;4950106;28;19989;-57
2022/11/09 14:23:49;;;;;;;;;;;;;;;;;;4957725;28;19929;-58
2022/11/09 14:26:15;;;;;;;;;;;;;;;;;;4956655;28;19930;-58
2022/11/09 14:28:41;;;;;;;;;;;;;;;;;;4968064;28;19936;-57
2022/11/09 14:31:07;;;;;;;;;;;;;;;;;;4967223;28;20438;-56
2022/11/09 14:33:35;;;;;;;;;;;;;;;;;;4967151;28;19930;-58
2022/11/09 14:36:01;;;;;;;;;;;;;;;;;;4965579;28;19930;-58
2022/11/09 14:38:27;;;;;;;;;;;;;;;;;;4958863;28;19934;-58
2022/11/09 14:40:53;;;;;;;;;;;;;;;;;;4967283;28;19930;-58
2022/11/09 14:43:19;;;;;;;;;;;;;;;;;;4955322;28;19941;-58
2022/11/09 14:45:45;;;;;;;;;;;;;;;;;;4967400;28;19937;-58
2022/11/09 14:48:11;;;;;;;;;;;;;;;;;;4966463;28;19930;-57
2022/11/09 14:50:37;;;;;;;;;;;;;;;;;;4967826;28;20490;-58
2022/11/09 14:53:04;;;;;;;;;;;;;;;;;;4968536;28;19926;-57
2022/11/09 14:55:30;;;;;;;;;;;;;;;;;;4966856;28;19934;-57
2022/11/09 14:57:56;;;;;;;;;;;;;;;;;;4967780;28;19981;-57
2022/11/09 15:00:22;;;;;;;;;;;;;;;;;;4966930;28;19934;-58
2022/11/09 15:02:48;;;;;;;;;;;;;;;;;;4966825;28;20016;-58
2022/11/09 15:05:14;;;;;;;;;;;;;;;;;;4962868;28;19934;-58
2022/11/09 15:07:40;;;;;;;;;;;;;;;;;;4967624;28;19930;-57
2022/11/09 15:10:06;;;;;;;;;;;;;;;;;;4967414;28;20388;-57
2022/11/09 15:12:32;;;;;;;;;;;;;;;;;;4950770;28;19926;-58
2022/11/09 15:15:00;;;;;;;;;;;;;;;;;;4967045;28;19934;-57
2022/11/09 15:17:26;;;;;;;;;;;;;;;;;;4966370;28;20354;-57
2022/11/09 15:19:52;;;;;;;;;;;;;;;;;;4949628;28;19930;-57
2022/11/09 15:22:18;;;;;;;;;;;;;;;;;;4964315;28;19930;-58
2022/11/09 15:24:44;;;;;;;;;;;;;;;;;;4967115;28;19926;-57
2022/11/09 15:27:10;;;;;;;;;;;;;;;;;;4966830;28;19930;-57
2022/11/09 15:29:36;;;;;;;;;;;;;;;;;;4966891;28;19977;-58
2022/11/09 15:32:02;;;;;;;;;;;;;;;;;;4967189;28;19934;-57
2022/11/09 15:34:28;;;;;;;;;;;;;;;;;;4967169;28;19934;-57
2022/11/09 15:36:54;;;;;;;;;;;;;;;;;;4967349;28;19934;-58
2022/11/09 15:39:20;;;;;;;;;;;;;;;;;;4967306;28;19930;-58
2022/11/09 15:41:46;;;;;;;;;;;;;;;;;;4967059;28;19930;-55
2022/11/09 15:59:20;;;;;;;;;;;;;;;;;;4962544;28;19956;-57
2022/11/09 16:01:46;;;;;;;;;;;;;;;;;;4965754;28;20403;-58
2022/11/09 16:04:12;;;;;;;;;;;;;;;;;;4965591;28;20024;-58
2022/11/09 16:06:38;;;;;;;;;;;;;;;;;;4967908;28;20021;-58
2022/11/09 16:09:04;;;;;;;;;;;;;;;;;;4966552;28;19936;-59
2022/11/09 16:11:30;;;;;;;;;;;;;;;;;;4966052;28;20371;-57
2022/11/09 16:13:56;;;;;;;;;;;;;;;;;;4966656;28;19930;-58
2022/11/09 16:16:22;;;;;;;;;;;;;;;;;;4966095;28;19993;-58
2022/11/09 16:18:48;;;;;;;;;;;;;;;;;;4966061;28;20400;-58
2022/11/09 16:21:14;;;;;;;;;;;;;;;;;;4963585;28;19926;-58
2022/11/09 16:23:40;;;;;;;;;;;;;;;;;;4967050;28;19926;-58
2022/11/09 16:26:06;;;;;;;;;;;;;;;;;;4949674;28;19922;-58
2022/11/09 16:28:32;;;;;;;;;;;;;;;;;;4967107;28;20468;-59
2022/11/09 16:30:58;;;;;;;;;;;;;;;;;;4965079;28;19937;-57
2022/11/09 16:33:24;;;;;;;;;;;;;;;;;;4957979;28;19930;-59
2022/11/09 16:35:50;;;;;;;;;;;;;;;;;;4966379;28;19953;-58
2022/11/09 16:38:16;;;;;;;;;;;;;;;;;;4962768;28;20385;-59
2022/11/09 16:40:42;;;;;;;;;;;;;;;;;;4966690;28;20383;-59
2022/11/09 16:43:09;;;;;;;;;;;;;;;;;;4966537;28;20408;-57
2022/11/09 16:45:35;;;;;;;;;;;;;;;;;;4965091;28;19988;-59
2022/11/09 16:48:01;;;;;;;;;;;;;;;;;;4965982;28;20664;-58
2022/11/09 16:50:27;;;;;;;;;;;;;;;;;;4966174;28;19926;-58
2022/11/09 16:52:53;;;;;;;;;;;;;;;;;;4965519;28;19934;-59
2022/11/09 16:55:19;;;;;;;;;;;;;;;;;;4965429;28;19936;-58
2022/11/09 16:57:45;;;;;;;;;;;;;;;;;;4968441;28;20012;-58
2022/11/09 17:00:11;;;;;;;;;;;;;;;;;;4969699;28;19937;-59
2022/11/09 17:02:37;;;;;;;;;;;;;;;;;;4969001;28;19922;-58
2022/11/09 17:05:03;;;;;;;;;;;;;;;;;;4969898;28;19926;-60